Time;durP1;ratioP1;P1;durP2;ratioP2;P2;SDS_P1;SDS_P2;PMS_P1;PMS_P2;Temp;Humidity;BMP_temperature;BMP_pressure;BME280_temperature;BME280_humidity;BME280_pressure;Samples;Min_cycle;Max_cycle;Signal;HPM_P1;HPM_P2
2023/01/05 00:01:48;154729.00;0.52;267.96;0.00;0.00;0.62;;;;;14.20;1.00;;;;;;2266609;61;1573;-88
2023/01/05 00:04:15;206275.00;0.69;356.72;0.00;0.00;0.62;;;;;14.10;1.00;;;;;;2264143;61;993;-88
2023/01/05 00:06:42;144199.00;0.48;249.81;0.00;0.00;0.62;;;;;14.10;1.00;;;;;;2264084;61;1912;-87
2023/01/05 00:09:12;139293.00;0.46;241.35;0.00;0.00;0.62;;;;;14.10;1.00;;;;;;2264132;61;1122;-89
2023/01/05 00:25:14;332586.00;1.11;573.93;0.00;0.00;0.62;;;;;14.00;1.00;;;;;;2261823;61;1394;-90
2023/01/05 00:27:42;275411.00;0.92;475.65;0.00;0.00;0.62;;;;;14.00;1.00;;;;;;2260041;61;1997;-90
2023/01/05 00:30:12;175292.00;0.58;303.38;0.00;0.00;0.62;;;;;13.90;1.00;;;;;;2260144;61;955;-88
2023/01/05 00:32:42;82282.00;0.27;142.98;0.00;0.00;0.62;;;;;14.10;1.00;;;;;;2260044;61;1368;-89
2023/01/05 00:35:10;196668.00;0.66;340.19;0.00;0.00;0.62;;;;;14.10;1.00;;;;;;2259992;61;956;-88
2023/01/05 00:37:38;229426.00;0.76;396.56;0.00;0.00;0.62;;;;;14.10;1.00;;;;;;2259939;61;1103;-89
2023/01/05 00:40:06;260677.00;0.87;450.31;0.00;0.00;0.62;;;;;14.10;1.00;;;;;;2259982;61;1520;-88
2023/01/05 00:42:33;66137.00;0.22;115.08;0.00;0.00;0.62;;;;;14.10;1.00;;;;;;2260120;61;1541;-87
2023/01/05 00:45:00;147382.00;0.49;255.30;0.00;0.00;0.62;;;;;14.20;1.00;;;;;;2259768;61;898;-89
2023/01/05 00:47:28;198660.00;0.66;343.62;0.00;0.00;0.62;;;;;13.90;1.00;;;;;;2260164;61;2010;-88
2023/01/05 00:49:57;65975.00;0.22;114.80;0.00;0.00;0.62;;;;;13.90;1.00;;;;;;2259846;61;1104;-87
2023/01/05 00:52:24;78875.00;0.26;137.09;0.00;0.00;0.62;;;;;13.70;1.00;;;;;;2260122;61;1383;-88
2023/01/05 00:57:23;462987.00;1.54;798.12;0.00;0.00;0.62;;;;;13.70;1.00;;;;;;2262375;61;1193;-89
2023/01/05 00:59:50;246645.00;0.82;426.18;0.00;0.00;0.62;;;;;13.60;1.00;;;;;;2260683;61;1344;-88
2023/01/05 01:04:54;302066.00;1.01;521.47;0.00;0.00;0.62;;;;;13.50;1.00;;;;;;2148336;40;3135;-87
2023/01/05 01:07:24;222596.00;0.74;384.81;0.00;0.00;0.62;;;;;13.30;1.00;;;;;;2267924;61;1912;-87
2023/01/05 01:09:51;209716.00;0.70;362.65;0.00;0.00;0.62;;;;;13.30;1.00;;;;;;2268029;61;1594;-87
2023/01/05 01:12:18;318316.00;1.06;549.40;0.00;0.00;0.62;;;;;13.20;1.00;;;;;;2268501;40;3612;-88
2023/01/05 01:14:48;171958.00;0.57;297.64;0.00;0.00;0.62;;;;;13.30;1.00;;;;;;2264340;61;995;-88
2023/01/05 01:17:15;228785.00;0.76;395.46;0.00;0.00;0.62;;;;;13.40;1.00;;;;;;2264586;61;1058;-87
2023/01/05 01:19:42;259476.00;0.86;448.25;0.00;0.00;0.62;;;;;13.40;1.00;;;;;;2277125;55;3763;-90
2023/01/05 01:22:24;271484.00;0.90;468.90;0.00;0.00;0.62;;;;;13.50;1.00;;;;;;2290861;40;3607;-87
2023/01/05 01:29:50;579391.00;1.93;998.65;0.00;0.00;0.62;;;;;13.50;1.00;;;;;;2262091;61;1409;-87
2023/01/05 01:32:19;275004.00;0.92;474.95;0.00;0.00;0.62;;;;;13.60;1.00;;;;;;2260596;61;1318;-89
2023/01/05 01:37:22;601138.00;2.00;1036.18;0.00;0.00;0.62;;;;;13.70;1.00;;;;;;2001089;60;1824;-88
2023/01/05 01:39:49;109301.00;0.36;189.62;0.00;0.00;0.62;;;;;13.50;1.00;;;;;;2260683;61;984;-88
2023/01/05 01:42:17;298373.00;0.99;515.12;52211.00;0.17;91.01;;;;;13.50;1.00;;;;;;2260622;61;1464;-89
2023/01/05 01:47:39;318713.00;1.06;550.09;0.00;0.00;0.62;;;;;13.70;1.00;;;;;;2262419;61;1965;-88
2023/01/05 01:50:14;375792.00;1.25;648.19;86564.00;0.29;150.37;;;;;13.70;1.00;;;;;;2260590;61;1114;-89
2023/01/05 01:52:45;409770.00;1.37;706.60;93365.00;0.31;162.12;;;;;13.80;1.00;;;;;;2260370;61;1632;-87
2023/01/05 01:55:13;666958.00;2.22;1149.99;91078.00;0.30;158.17;;;;;13.60;1.00;;;;;;2281345;40;3594;-89
2023/01/05 01:57:41;449169.00;1.50;774.35;96188.00;0.32;166.99;;;;;13.40;1.00;;;;;;2268542;61;1286;-88
2023/01/05 02:00:13;499082.00;1.66;860.24;95047.00;0.32;165.02;;;;;13.40;1.00;;;;;;2268607;61;1124;-87
2023/01/05 02:02:40;1008236.00;3.36;1747.06;135218.00;0.45;234.33;;;;;13.50;1.00;;;;;;2265703;61;1772;-88
2023/01/05 02:05:12;451531.00;1.51;778.42;99079.00;0.33;171.98;;;;;13.40;1.00;;;;;;2264541;61;1029;-86
2023/01/05 02:07:54;1084260.00;3.61;1882.30;123621.00;0.41;214.33;;;;;13.20;1.00;;;;;;2264532;61;1978;-87
2023/01/05 02:10:36;1122456.00;3.74;1950.63;26604.00;0.09;46.70;;;;;13.30;1.00;;;;;;2264400;61;1438;-87
2023/01/05 02:13:19;1066670.00;3.56;1850.92;55138.00;0.18;96.07;;;;;13.10;1.10;;;;;;2264353;61;1442;-88
2023/01/05 02:15:54;1317854.00;4.39;2304.82;144467.00;0.48;250.27;;;;;13.00;1.10;;;;;;2264525;61;1498;-88
2023/01/05 02:18:36;1542664.00;5.14;2723.66;110205.00;0.37;191.18;;;;;12.90;2.70;;;;;;2264622;61;2153;-86
2023/01/05 02:21:22;974247.00;3.25;1686.91;49663.00;0.17;86.60;;;;;12.80;3.80;;;;;;2264534;61;1441;-88
2023/01/05 02:24:30;703818.00;2.35;1213.86;1037.00;0.00;2.42;;;;;13.10;2.40;;;;;;2264559;61;1051;-88
2023/01/05 02:30:07;1010339.00;3.37;1750.79;17745.00;0.06;31.36;;;;;13.10;2.70;;;;;;2262038;61;1482;-87
2023/01/05 02:35:20;1461120.00;4.87;2570.17;213373.00;0.71;368.94;;;;;13.10;2.10;;;;;;2262451;61;1211;-87
2023/01/05 02:37:58;965231.00;3.22;1670.99;194860.00;0.65;337.08;;;;;13.20;1.70;;;;;;2260423;61;1537;-88
2023/01/05 02:40:32;1078415.00;3.59;1871.86;47980.00;0.16;83.69;;;;;13.40;1.30;;;;;;2260268;61;1568;-88
2023/01/05 02:43:03;645951.00;2.15;1113.63;13582.00;0.05;24.15;;;;;13.20;1.40;;;;;;2260338;61;1370;-88
2023/01/05 02:45:31;1075100.00;3.58;1865.95;12244.00;0.04;21.84;;;;;13.10;2.60;;;;;;2260290;61;1509;-88
2023/01/05 02:47:58;312788.00;1.04;539.90;0.00;0.00;0.62;;;;;13.10;2.30;;;;;;2260508;61;1989;-87
2023/01/05 02:50:32;358933.00;1.20;619.21;0.00;0.00;0.62;;;;;13.20;1.90;;;;;;2260225;61;1028;-89
2023/01/05 02:53:10;221781.00;0.74;383.41;0.00;0.00;0.62;;;;;13.20;2.50;;;;;;2260445;61;1387;-88
2023/01/05 02:55:44;384413.00;1.28;663.01;0.00;0.00;0.62;;;;;13.20;1.70;;;;;;2260372;61;1637;-87
2023/01/05 02:58:20;82245.00;0.27;142.92;0.00;0.00;0.62;;;;;13.40;1.30;;;;;;2260400;61;1033;-88
2023/01/05 03:00:53;331771.00;1.11;572.53;0.00;0.00;0.62;;;;;13.40;1.10;;;;;;2260294;61;1446;-88
2023/01/05 03:03:28;236431.00;0.79;408.61;0.00;0.00;0.62;;;;;13.40;1.10;;;;;;2260385;61;1568;-89
2023/01/05 03:06:03;233494.00;0.78;403.56;0.00;0.00;0.62;;;;;13.60;1.00;;;;;;2279649;56;3830;-88
2023/01/05 03:08:36;341763.00;1.14;589.70;0.00;0.00;0.62;;;;;13.40;1.30;;;;;;2268213;61;1923;-88
2023/01/05 03:14:01;168313.00;0.56;291.36;0.00;0.00;0.62;;;;;13.50;1.00;;;;;;2264368;61;605;-87
2023/01/05 03:16:33;355024.00;1.18;612.50;0.00;0.00;0.62;;;;;13.60;1.00;;;;;;2298875;56;3734;-87
2023/01/05 03:37:34;767846.00;2.56;1325.10;85350.00;0.28;148.28;;;;;14.20;1.00;;;;;;2266518;61;1354;-89
2023/01/05 03:40:07;507130.00;1.69;874.10;96128.00;0.32;166.89;;;;;14.40;1.00;;;;;;2283454;40;3631;-88
2023/01/05 03:42:34;733664.00;2.45;1265.67;107552.00;0.36;186.61;;;;;14.50;1.00;;;;;;2266224;61;1470;-87
2023/01/05 03:45:02;1318733.00;4.40;2306.43;256631.00;0.86;443.35;;;;;14.50;1.00;;;;;;2264831;61;753;-87
2023/01/05 03:47:30;470617.00;1.57;811.25;83573.00;0.28;145.21;;;;;14.30;1.00;;;;;;2264121;61;1907;-87
2023/01/05 03:50:00;441471.00;1.47;761.11;98718.00;0.33;171.36;;;;;14.30;1.00;;;;;;2264170;61;1452;-88
2023/01/05 03:52:29;432170.00;1.44;745.12;96363.00;0.32;167.29;;;;;14.30;1.00;;;;;;2264219;61;1358;-89
2023/01/05 03:54:56;453938.00;1.51;782.56;88019.00;0.29;152.89;;;;;14.20;1.00;;;;;;2263866;61;1495;-87
2023/01/05 03:59:54;909496.00;3.03;1572.80;87135.00;0.29;151.36;;;;;13.90;1.00;;;;;;2261490;61;1314;-86
2023/01/05 04:02:21;718127.00;2.39;1238.69;122790.00;0.41;212.89;;;;;13.80;1.00;;;;;;2260197;61;1245;-88
2023/01/05 04:04:56;760131.00;2.53;1311.68;121087.00;0.40;209.96;;;;;13.70;1.00;;;;;;2260184;61;1039;-88
2023/01/05 04:07:23;1100275.00;3.67;1910.92;120637.00;0.40;209.18;;;;;13.70;1.00;;;;;;2259721;61;2015;-87
2023/01/05 04:09:51;1048495.00;3.49;1818.55;140254.00;0.47;243.01;;;;;13.70;1.00;;;;;;2260166;61;1499;-88
2023/01/05 04:12:18;947552.00;3.16;1639.79;92136.00;0.31;160.00;;;;;13.70;1.00;;;;;;2259938;61;1396;-87
2023/01/05 04:14:45;969957.00;3.23;1679.33;130433.00;0.43;226.08;;;;;14.10;1.00;;;;;;2260010;61;1560;-87
2023/01/05 04:19:41;1135794.00;3.79;1974.56;110338.00;0.37;191.41;;;;;14.10;1.00;;;;;;2261559;61;1418;-89
2023/01/05 04:22:08;876643.00;2.92;1515.13;37713.00;0.13;65.93;;;;;14.30;1.00;;;;;;2260138;61;1360;-87
2023/01/05 04:24:35;977452.00;3.26;1692.58;123868.00;0.41;214.75;;;;;14.20;1.00;;;;;;2260120;61;1248;-88
2023/01/05 04:29:33;1288456.00;4.29;2250.99;103447.00;0.34;179.52;;;;;14.00;1.00;;;;;;2265846;61;2009;-89
2023/01/05 04:32:00;910045.00;3.03;1573.77;48254.00;0.16;84.17;;;;;13.90;1.00;;;;;;2264142;61;1389;-88
2023/01/05 04:34:35;998534.00;3.33;1729.88;32404.00;0.11;56.74;;;;;14.10;1.00;;;;;;2277391;55;3750;-88
2023/01/05 04:37:02;665166.00;2.22;1146.88;45611.00;0.15;79.60;;;;;14.20;1.00;;;;;;2268102;61;1444;-87
2023/01/05 04:39:29;738667.00;2.46;1274.36;8583.00;0.03;15.49;;;;;14.30;1.00;;;;;;2268034;61;1544;-88
2023/01/05 04:44:24;1312140.00;4.37;2294.34;106841.00;0.36;185.38;;;;;14.00;1.00;;;;;;2261753;61;1507;-86
2023/01/05 04:46:52;688898.00;2.30;1187.99;61075.00;0.20;106.34;;;;;14.10;1.00;;;;;;2260058;61;1588;-87
2023/01/05 04:49:19;526330.00;1.75;907.17;51870.00;0.17;90.42;;;;;14.20;1.00;;;;;;2261010;61;2013;-86
2023/01/05 04:51:46;510302.00;1.70;879.56;7715.00;0.03;13.99;;;;;14.30;1.00;;;;;;2261458;61;1519;-86
2023/01/05 04:54:13;487781.00;1.63;840.79;96162.00;0.32;166.95;;;;;14.20;1.00;;;;;;2270438;55;3788;-88
2023/01/05 04:56:40;510340.00;1.70;879.63;30046.00;0.10;52.66;;;;;14.30;1.00;;;;;;2269550;61;953;-86
2023/01/05 04:59:07;565823.00;1.89;975.24;5527.00;0.02;10.20;;;;;14.20;1.00;;;;;;2269409;61;1573;-87
2023/01/05 05:01:34;944975.00;3.15;1635.25;127031.00;0.42;220.21;;;;;14.20;1.00;;;;;;2268443;61;1486;-88
2023/01/05 05:04:02;655035.00;2.18;1129.35;30480.00;0.10;53.41;;;;;14.30;1.00;;;;;;2265331;61;1047;-87
2023/01/05 05:06:29;867981.00;2.89;1499.95;2223.00;0.01;4.47;;;;;14.40;1.00;;;;;;2265486;61;1029;-88
2023/01/05 05:08:56;492652.00;1.64;849.17;37785.00;0.13;66.06;;;;;14.40;1.00;;;;;;2265226;61;1994;-88
2023/01/05 05:11:23;573634.00;1.91;988.72;0.00;0.00;0.62;;;;;14.40;1.00;;;;;;2265422;61;1368;-86
2023/01/05 05:16:19;691708.00;2.31;1192.86;52411.00;0.17;91.36;;;;;14.40;1.00;;;;;;2262954;61;1363;-87
2023/01/05 05:18:46;927570.00;3.09;1604.59;51368.00;0.17;89.55;;;;;14.10;1.00;;;;;;2269624;55;3777;-87
2023/01/05 05:21:26;752380.00;2.51;1298.20;28256.00;0.09;49.56;;;;;14.10;1.00;;;;;;2269146;61;1376;-89
2023/01/05 05:23:53;118076.00;0.39;204.76;0.00;0.00;0.62;;;;;14.20;1.00;;;;;;2265264;61;1709;-88
2023/01/05 05:26:22;85334.00;0.28;148.25;0.00;0.00;0.62;;;;;14.40;1.00;;;;;;2265201;61;1667;-87
2023/01/05 05:28:49;90144.00;0.30;156.56;0.00;0.00;0.62;;;;;14.40;1.00;;;;;;2265249;61;1989;-88
2023/01/05 05:31:16;278725.00;0.93;481.35;0.00;0.00;0.62;;;;;14.20;1.00;;;;;;2265314;61;1399;-88
2023/01/05 05:33:43;79233.00;0.26;137.71;0.00;0.00;0.62;;;;;14.30;1.00;;;;;;2265170;61;1083;-88
2023/01/05 05:36:10;223506.00;0.75;386.38;0.00;0.00;0.62;;;;;14.20;1.00;;;;;;2265401;61;1080;-87
2023/01/05 05:38:39;372258.00;1.24;642.12;33288.00;0.11;58.27;;;;;14.30;1.00;;;;;;2265335;61;876;-88
2023/01/05 05:43:38;641263.00;2.14;1105.52;0.00;0.00;0.62;;;;;14.40;1.00;;;;;;2271117;61;1556;-90
2023/01/05 05:46:05;262964.00;0.88;454.25;37621.00;0.13;65.77;;;;;14.40;1.00;;;;;;2269328;61;1458;-86
2023/01/05 05:48:32;44247.00;0.15;77.24;0.00;0.00;0.62;;;;;14.50;1.00;;;;;;2269197;61;2004;-88
2023/01/05 05:50:59;56310.00;0.19;98.10;0.00;0.00;0.62;;;;;14.30;1.00;;;;;;2269419;61;960;-88
2023/01/05 05:53:26;78191.00;0.26;135.91;0.00;0.00;0.62;;;;;14.30;1.00;;;;;;2265458;61;1340;-90
2023/01/05 05:56:00;133790.00;0.45;231.86;0.00;0.00;0.62;;;;;14.30;1.00;;;;;;2265173;61;1462;-88
2023/01/05 05:58:27;74180.00;0.25;128.98;0.00;0.00;0.62;;;;;14.50;1.00;;;;;;2265253;61;1525;-88
2023/01/05 06:00:58;41539.00;0.14;72.55;0.00;0.00;0.62;;;;;14.70;1.00;;;;;;2264283;61;1091;-89
2023/01/05 06:03:25;50815.00;0.17;88.60;0.00;0.00;0.62;;;;;14.90;1.00;;;;;;2264460;61;1219;-88
2023/01/05 06:05:53;162580.00;0.54;281.48;0.00;0.00;0.62;;;;;14.80;1.00;;;;;;2264596;61;1124;-89
2023/01/05 06:10:49;550959.00;1.84;949.61;0.00;0.00;0.62;;;;;14.50;1.00;;;;;;2269967;55;3626;-87
2023/01/05 06:13:18;304569.00;1.02;525.77;0.00;0.00;0.62;;;;;14.50;1.00;;;;;;2264781;61;1393;-88
2023/01/05 06:15:45;93576.00;0.31;162.48;0.00;0.00;0.62;;;;;14.60;1.00;;;;;;2264586;61;1052;-88
2023/01/05 06:18:12;121406.00;0.40;210.51;0.00;0.00;0.62;;;;;14.60;1.00;;;;;;2264485;61;1060;-88
2023/01/05 06:20:39;74634.00;0.25;129.77;0.00;0.00;0.62;;;;;14.50;1.00;;;;;;2264422;61;1064;-91
2023/01/05 06:25:42;228070.00;0.76;394.23;0.00;0.00;0.62;;;;;14.40;1.00;;;;;;2292884;56;1863;-87
2023/01/05 06:28:09;202432.00;0.67;350.11;0.00;0.00;0.62;;;;;14.40;1.00;;;;;;2268496;61;1922;-89
2023/01/05 06:30:46;252898.00;0.84;436.94;0.00;0.00;0.62;;;;;14.30;1.00;;;;;;2268171;61;1750;-89
2023/01/05 06:33:13;371061.00;1.24;640.06;0.00;0.00;0.62;;;;;14.50;1.00;;;;;;2272931;40;3569;-87
2023/01/05 06:35:53;374528.00;1.25;646.02;61778.00;0.21;107.55;;;;;14.50;1.00;;;;;;2264224;61;1041;-89
2023/01/05 06:38:21;382278.00;1.27;659.34;0.00;0.00;0.62;;;;;14.70;1.00;;;;;;2272434;55;3749;-91
2023/01/05 07:22:40;0.00;0.00;0.62;0.00;0.00;0.62;;;;;14.60;1.00;;;;;;2531715;55;1816;31
2023/01/05 07:28:34;32863.00;0.11;57.54;0.00;0.00;0.62;;;;;14.50;1.00;;;;;;2531923;55;1762;31
2023/01/05 07:31:11;1247151.00;4.16;2175.71;86684.00;0.29;150.58;;;;;14.40;1.00;;;;;;2496094;56;3991;31
2023/01/05 09:06:46;584024.00;1.95;1006.64;0.00;0.00;0.62;;;;;14.60;1.00;;;;;;2266376;61;965;-90
2023/01/05 09:09:13;226381.00;0.75;391.32;0.00;0.00;0.62;;;;;14.70;1.00;;;;;;2256212;61;1989;-94
2023/01/05 11:42:42;1216963.00;4.06;2120.92;142587.00;0.48;247.03;;;;;15.60;1.00;;;;;;2266379;61;1377;-90
2023/01/05 11:47:47;554165.00;1.85;955.14;86092.00;0.29;149.56;;;;;15.30;1.00;;;;;;2266684;61;1316;-92
2023/01/05 11:50:23;889110.00;2.96;1537.00;302508.00;1.01;522.23;;;;;15.60;1.00;;;;;;2264538;61;1912;-90
2023/01/05 12:03:17;1059378.00;3.53;1837.93;90490.00;0.30;157.15;;;;;15.60;1.00;;;;;;2266431;61;1384;-91
2023/01/05 12:38:50;352860.00;1.18;608.78;0.00;0.00;0.62;;;;;16.20;1.00;;;;;;2266489;61;972;-89
2023/01/05 13:31:56;439074.00;1.46;756.99;0.00;0.00;0.62;;;;;16.80;1.00;;;;;;2501409;40;3479;31
2023/01/05 14:32:30;555439.00;1.85;957.34;0.00;0.00;0.62;;;;;16.20;1.00;;;;;;2266778;61;1226;-90
2023/01/05 14:40:22;565066.00;1.88;973.94;0.00;0.00;0.62;;;;;16.40;1.00;;;;;;2502693;40;3414;31
2023/01/05 15:05:34;1001342.00;3.34;1734.85;22417.00;0.07;39.46;;;;;16.30;1.00;;;;;;2266715;61;983;-91
2023/01/05 15:08:16;745604.00;2.49;1286.41;18480.00;0.06;32.64;;;;;16.30;1.00;;;;;;2264905;61;1104;-92
2023/01/05 15:55:52;307828.00;1.03;531.38;0.00;0.00;0.62;;;;;16.20;1.00;;;;;;2501495;55;3646;31
2023/01/05 16:06:01;264134.00;0.88;456.26;0.00;0.00;0.62;;;;;16.00;1.00;;;;;;2318123;56;3633;-87
2023/01/05 16:08:31;72567.00;0.24;126.20;90656.00;0.30;157.44;;;;;16.30;1.00;;;;;;2268355;61;1063;-88
2023/01/05 16:11:04;120480792.00;401.60;70845536.00;0.00;0.00;0.62;;;;;16.20;1.00;;;;;;2268209;61;1942;-91
2023/01/05 16:51:25;798081.00;2.66;1377.78;33785.00;0.11;59.13;;;;;15.70;1.00;;;;;;2457300;55;3620;-87
2023/01/05 17:21:55;1094509.00;3.65;1900.61;53854.00;0.18;93.85;;;;;15.70;1.00;;;;;;2289174;40;3489;-89
2023/01/05 18:04:56;326090.00;1.09;562.77;0.00;0.00;0.62;;;;;15.50;1.00;;;;;;1633377;55;3570;-88
2023/01/05 18:17:34;516591.00;1.72;890.39;0.00;0.00;0.62;;;;;15.60;1.00;;;;;;2262833;61;1321;-89
2023/01/05 18:25:13;356710.00;1.19;615.39;0.00;0.00;0.62;;;;;15.70;1.00;;;;;;2271110;61;1060;-90
2023/01/05 19:00:32;664462.00;2.21;1145.66;110010.00;0.37;190.85;;;;;16.00;1.00;;;;;;2276191;56;3645;-88
2023/01/05 19:15:38;1086573.00;3.62;1886.43;26885.00;0.09;47.19;;;;;15.50;1.00;;;;;;2262856;61;1310;-89
2023/01/05 19:18:05;988496.00;3.29;1712.11;94215.00;0.31;163.59;;;;;15.50;1.00;;;;;;2261064;61;1613;-91
2023/01/05 19:20:33;650495.00;2.17;1121.49;0.00;0.00;0.62;;;;;15.50;1.00;;;;;;2261094;61;1076;-91
2023/01/05 19:23:00;807741.00;2.69;1394.63;48395.00;0.16;84.41;;;;;15.50;1.00;;;;;;2261111;61;1214;-89
2023/01/05 19:25:27;1077786.00;3.59;1870.74;101031.00;0.34;175.35;;;;;15.50;1.00;;;;;;2260961;61;1727;-89
2023/01/05 19:35:29;952865.00;3.18;1649.16;14601.00;0.05;25.92;;;;;15.40;1.00;;;;;;2270834;61;1310;-90
2023/01/05 19:37:59;620986.00;2.07;1070.47;12209.00;0.04;21.78;;;;;15.30;1.00;;;;;;2269110;61;1190;-90
2023/01/05 19:47:59;628179.00;2.09;1082.90;0.00;0.00;0.62;;;;;15.20;1.00;;;;;;2262622;61;1305;-89
2023/01/05 21:09:23;126520632.00;421.74;82054648.00;78504.00;0.26;136.45;;;;;15.70;1.00;;;;;;485259;56;3077;-87
2023/01/05 21:22:09;492691.00;1.64;849.24;0.00;0.00;0.62;;;;;15.30;1.00;;;;;;2113013;55;3106;31
2023/01/05 22:29:37;636309.00;2.12;1096.96;89877.00;0.30;156.10;;;;;14.80;1.00;;;;;;2262658;61;1330;-91
2023/01/05 22:34:33;847649.00;2.83;1464.35;0.00;0.00;0.62;;;;;14.90;1.00;;;;;;2262711;61;1298;-88
2023/01/05 22:37:01;494014.00;1.65;851.52;0.00;0.00;0.62;;;;;15.00;1.00;;;;;;2261086;61;1497;-89
2023/01/05 23:20:18;351022.00;1.17;605.62;0.00;0.00;0.62;;;;;14.50;1.00;;;;;;2263025;61;1299;-89
2023/01/05 23:32:45;399297.00;1.33;688.60;0.00;0.00;0.62;;;;;14.80;1.00;;;;;;1960984;55;3538;-90
